Aérodrome :
LOGIN :

S'inscrire | Disclaimer

   EN    FR    IT 

 










Légende :    VFR   VFR Marginal   IFR   IFR Intensif   IFR Très Intensif
Visi : 
Plafond : 
>= 8 km
>= 3000ft
5 à 8 km
1000 à 3000 ft
1500m à 5 km
500 à 1000 ft
800 à 1500m
200 à 500 ft
< 800m
< 200 ft
Symboles :   Orages  Brouillard  Fortes neiges  Fortes précipitations  Vent > 20 kt
SIGMETs :   Divers  Orages  Givrage  Turbulence  Onde Orograph.  Cendres Volcan.







- Altitude de l'aérodrome : 117 ft
- Code IATA : NWI
- Voir les cartes d'approche


EGSH - Norwich

DERNIER METAR :
  • 202220Z AUTO VRB03KT 9999 NCD 13/07 Q1010

METARs EXPIRÉS :
  • 202150Z AUTO VRB03KT 9999 NCD 13/06 Q1010
  • 202120Z 18003KT CAVOK 14/06 Q1010 NOSIG
  • 202050Z VRB02KT CAVOK 15/06 Q1010
  • 202020Z 23003KT CAVOK 15/06 Q1010 NOSIG
  • 201950Z 26007KT 9999 FEW028 16/06 Q1010 NOSIG

TAF TAF EGSH
Valide du 20 à 21h jusqu'au 21 à 06h UTC


201957Z 2021/2106 23008KT 9999 FEW030
BECMG 2103/2106 17010KT
ATIS : +44 1603 420 640
Pas de NOTAMs connus pour ce terrain.



MET'MAP, la Météo Aéronautique d'un coup d'oeil ! - Copyright ORBIFLY Décembre 2007 - Disclaimer

ORBIFLY MET'MAP TEAM :

Programmation & Développement : Alexandra Zaïnal
Conception & Développement : Baudouin d'Aumeries
Co-Programmation & Développement : Marc-Olivier Méhu
Soutien technique & logistique : Manuel Goepfert

Contact : metmap@orbifly.com




SOURCES & CREDITS :

   NOAA